Time;durP1;ratioP1;P1;durP2;ratioP2;P2;SDS_P1;SDS_P2;PMS_P1;PMS_P2;Temp;Humidity;BMP_temperature;BMP_pressure;BME280_temperature;BME280_humidity;BME280_pressure;Samples;Min_cycle;Max_cycle;Signal;HPM_P1;HPM_P2
2022/06/07 00:00:15;;;;;;;0.00;0.00;;;17.80;90.80;;;;;;5042866;28;20071;-85
2022/06/07 00:02:41;;;;;;;0.10;0.10;;;17.80;90.50;;;;;;5043167;28;20392;-83
2022/06/07 00:05:07;;;;;;;0.10;0.10;;;17.80;90.70;;;;;;5027475;28;20028;-82
2022/06/07 00:07:33;;;;;;;0.20;0.20;;;17.70;90.90;;;;;;5041466;28;20082;-83
2022/06/07 00:09:59;;;;;;;0.10;0.10;;;17.70;90.70;;;;;;5043534;28;20040;-83
2022/06/07 00:12:25;;;;;;;0.10;0.10;;;17.70;90.80;;;;;;5046580;28;20112;-83
2022/06/07 00:14:52;;;;;;;0.22;0.20;;;17.70;90.40;;;;;;5026504;28;20621;-83
2022/06/07 00:17:18;;;;;;;0.40;0.10;;;17.50;91.00;;;;;;5044127;28;20118;-82
2022/06/07 00:19:43;;;;;;;0.03;0.03;;;17.10;91.30;;;;;;5041126;28;20037;-82
2022/06/07 00:22:10;;;;;;;0.10;0.10;;;17.10;91.40;;;;;;5025013;28;20037;-82
2022/06/07 00:24:36;;;;;;;;;;;17.00;91.30;;;;;;5043888;28;20040;-83
2022/06/07 00:27:02;;;;;;;0.25;0.25;;;17.10;91.10;;;;;;5040126;28;19944;-82
2022/06/07 00:29:29;;;;;;;0.30;0.30;;;17.10;91.00;;;;;;5042995;28;20132;-82
2022/06/07 00:31:55;;;;;;;0.25;0.20;;;17.10;91.00;;;;;;5042671;28;20033;-82
2022/06/07 00:34:22;;;;;;;0.10;0.10;;;17.00;91.10;;;;;;5041881;28;20025;-82
2022/06/07 00:36:48;;;;;;;0.08;0.08;;;17.00;91.00;;;;;;5042174;28;20168;-82
2022/06/07 00:39:14;;;;;;;0.00;0.00;;;17.10;91.10;;;;;;5042121;28;20119;-80
2022/06/07 00:41:40;;;;;;;0.20;0.20;;;17.00;91.10;;;;;;5040325;28;20128;-84
2022/06/07 00:44:26;;;;;;;0.33;0.33;;;16.90;91.30;;;;;;5044276;28;20068;-84
2022/06/07 00:46:58;;;;;;;;;;;16.80;91.50;;;;;;5024368;28;20032;-84
2022/06/07 00:49:26;;;;;;;0.55;0.52;;;16.80;91.70;;;;;;5041625;28;19917;-85
2022/06/07 00:51:52;;;;;;;0.30;0.30;;;16.70;91.90;;;;;;5023672;28;20822;-84
2022/06/07 00:54:31;;;;;;;0.10;0.10;;;16.70;92.30;;;;;;5041881;28;20033;-82
2022/06/07 00:56:57;;;;;;;0.10;0.10;;;16.60;92.10;;;;;;5041050;28;20029;-84
2022/06/07 00:59:24;;;;;;;0.10;0.10;;;16.60;92.20;;;;;;5041032;28;20139;-85
2022/06/07 01:01:50;;;;;;;0.30;0.30;;;16.50;92.40;;;;;;5041382;28;20060;-82
2022/06/07 01:04:17;;;;;;;0.17;0.17;;;16.50;92.40;;;;;;5042606;28;20024;-83
2022/06/07 01:12:11;;;;;;;0.13;0.10;;;16.50;92.30;;;;;;5040356;28;20043;-83
2022/06/07 01:14:37;;;;;;;0.13;0.13;;;16.60;92.10;;;;;;5042438;28;20033;-82
2022/06/07 01:17:04;;;;;;;0.10;0.10;;;16.80;92.00;;;;;;5043194;28;20028;-83
2022/06/07 01:19:30;;;;;;;0.45;0.30;;;16.80;91.90;;;;;;5040544;28;20041;-83
2022/06/07 01:21:55;;;;;;;0.10;0.10;;;16.80;92.00;;;;;;5042452;28;20041;-83
2022/06/07 01:24:21;;;;;;;0.23;0.23;;;16.70;91.90;;;;;;5041965;28;20024;-83
2022/06/07 01:26:47;;;;;;;0.13;0.13;;;16.70;92.10;;;;;;5039423;28;20040;-81
2022/06/07 01:29:14;;;;;;;0.37;0.37;;;16.70;92.10;;;;;;5041546;28;20125;-82
2022/06/07 01:31:40;;;;;;;0.13;0.13;;;16.80;91.90;;;;;;5042870;28;20031;-82
2022/06/07 01:34:06;;;;;;;0.20;0.20;;;16.80;91.90;;;;;;5040378;28;20036;-82
2022/06/07 01:36:32;;;;;;;0.07;0.07;;;16.90;91.80;;;;;;5040193;28;20055;-82
2022/06/07 01:41:53;;;;;;;0.10;0.10;;;16.70;92.00;;;;;;5040633;28;20477;-84
2022/06/07 01:44:20;;;;;;;0.45;0.45;;;16.60;92.20;;;;;;5042025;28;20110;-79
2022/06/07 01:46:46;;;;;;;;;;;16.50;92.80;;;;;;5037874;28;20033;-80
2022/06/07 01:49:12;;;;;;;0.20;0.20;;;16.50;92.60;;;;;;5038347;28;19924;-79
2022/06/07 01:51:38;;;;;;;0.10;0.10;;;16.50;92.80;;;;;;5039452;28;21008;-80
2022/06/07 01:54:04;;;;;;;0.43;0.43;;;16.70;92.60;;;;;;5040984;28;20039;-80
2022/06/07 01:56:29;;;;;;;0.10;0.10;;;16.70;92.70;;;;;;5040085;28;20037;-80
2022/06/07 01:58:57;;;;;;;0.53;0.53;;;16.80;92.40;;;;;;5041683;28;20037;-80
2022/06/07 02:01:23;;;;;;;0.88;0.38;;;16.70;92.50;;;;;;5038185;28;20047;-79
2022/06/07 02:03:49;;;;;;;0.05;0.05;;;16.60;92.80;;;;;;5040989;28;20052;-79
2022/06/07 02:06:15;;;;;;;0.10;0.10;;;16.60;92.90;;;;;;5038429;28;20124;-79
2022/06/07 02:08:41;;;;;;;0.03;0.03;;;16.70;92.80;;;;;;5039893;28;20025;-80
2022/06/07 02:11:10;;;;;;;0.10;0.10;;;16.60;92.90;;;;;;5042294;28;20036;-80
2022/06/07 02:13:36;;;;;;;0.25;0.25;;;16.70;92.60;;;;;;5041940;28;20033;-80
2022/06/07 02:16:02;;;;;;;13.80;1.55;;;16.60;92.90;;;;;;5040207;28;20543;-80
2022/06/07 02:18:28;;;;;;;1.08;0.50;;;16.60;93.00;;;;;;5040538;28;20033;-80
2022/06/07 02:20:56;;;;;;;0.10;0.10;;;16.50;93.20;;;;;;5039722;28;20043;-80
2022/06/07 02:23:22;;;;;;;0.20;0.20;;;16.60;93.10;;;;;;5040908;28;20108;-81
2022/06/07 02:25:51;;;;;;;0.30;0.30;;;16.70;92.90;;;;;;5041592;28;20986;-81
2022/06/07 02:28:20;;;;;;;0.30;0.30;;;16.80;92.70;;;;;;5037857;28;20035;-81
2022/06/07 02:30:47;;;;;;;0.17;0.17;;;16.70;92.80;;;;;;5021150;28;20492;-81
2022/06/07 02:33:14;;;;;;;0.10;0.10;;;16.70;92.90;;;;;;5040053;28;20029;-80
2022/06/07 02:35:40;;;;;;;;;;;16.70;92.90;;;;;;5041564;28;20061;-80
2022/06/07 02:38:08;;;;;;;0.30;0.30;;;16.70;92.90;;;;;;5024618;28;19913;-81
2022/06/07 02:40:34;;;;;;;0.10;0.10;;;16.70;92.80;;;;;;5038056;28;20029;-80
2022/06/07 02:43:02;;;;;;;0.10;0.10;;;16.70;92.80;;;;;;5040273;28;20053;-81
2022/06/07 02:45:28;;;;;;;0.10;0.10;;;16.70;92.90;;;;;;5041071;28;20036;-80
2022/06/07 02:47:53;;;;;;;0.85;0.82;;;16.70;93.10;;;;;;5018364;28;20103;-80
2022/06/07 02:50:19;;;;;;;0.20;0.20;;;16.50;93.40;;;;;;5021486;28;20726;-81
2022/06/07 02:52:45;;;;;;;0.40;0.40;;;16.60;93.40;;;;;;5021035;28;20049;-81
2022/06/07 02:55:11;;;;;;;0.40;0.40;;;16.50;93.50;;;;;;5020345;28;20280;-80
2022/06/07 02:57:36;;;;;;;0.50;0.50;;;16.50;93.50;;;;;;5021352;28;20061;-81
2022/06/07 03:00:05;;;;;;;0.20;0.20;;;16.60;93.40;;;;;;5020716;28;20029;-81
2022/06/07 03:02:31;;;;;;;0.85;0.20;;;16.70;93.00;;;;;;5020886;28;20049;-79
2022/06/07 03:05:28;;;;;;;0.07;0.07;;;16.70;93.00;;;;;;5022055;28;20051;-81
2022/06/07 03:07:53;;;;;;;0.32;0.32;;;16.70;93.00;;;;;;5019447;28;20962;-79
2022/06/07 03:10:19;;;;;;;0.20;0.20;;;16.60;93.00;;;;;;5018746;28;20025;-79
2022/06/07 03:12:45;;;;;;;0.70;0.50;;;16.50;93.50;;;;;;5018390;28;20037;-81
2022/06/07 03:15:12;;;;;;;0.63;0.53;;;16.50;93.40;;;;;;5021756;28;20033;-83
2022/06/07 03:17:38;;;;;;;0.40;0.40;;;16.50;93.50;;;;;;5018342;28;20416;-83
2022/06/07 03:20:05;;;;;;;0.65;0.22;;;16.50;93.40;;;;;;5022295;28;20034;-83
2022/06/07 03:22:32;;;;;;;0.25;0.25;;;16.50;93.30;;;;;;5018629;28;20704;-82
2022/06/07 03:25:01;;;;;;;0.20;0.20;;;16.50;93.30;;;;;;5023646;28;20083;-82
2022/06/07 03:27:27;;;;;;;0.28;0.28;;;16.50;93.40;;;;;;5021602;28;20523;-83
2022/06/07 03:29:53;;;;;;;1.10;0.50;;;16.50;93.20;;;;;;5024610;28;20025;-81
2022/06/07 03:32:18;;;;;;;0.87;0.87;;;16.50;93.30;;;;;;5025072;28;20028;-81
2022/06/07 03:34:44;;;;;;;0.47;0.47;;;16.50;93.30;;;;;;5022985;28;20037;-81
2022/06/07 03:37:10;;;;;;;0.33;0.33;;;16.40;93.30;;;;;;5023001;28;20128;-82
2022/06/07 03:39:35;;;;;;;0.50;0.50;;;16.40;93.50;;;;;;5024972;28;20029;-81
2022/06/07 03:42:01;;;;;;;0.10;0.10;;;16.50;93.40;;;;;;5020674;28;20061;-81
2022/06/07 03:44:27;;;;;;;0.10;0.10;;;16.50;93.30;;;;;;5024201;28;20048;-84
2022/06/07 03:46:53;;;;;;;0.50;0.50;;;16.50;93.20;;;;;;5027044;28;20035;-83
2022/06/07 03:49:19;;;;;;;0.20;0.20;;;16.50;93.20;;;;;;5043805;28;20033;-82
2022/06/07 03:51:47;;;;;;;0.30;0.30;;;16.40;93.20;;;;;;5023237;28;20531;-83
2022/06/07 03:54:13;;;;;;;0.20;0.20;;;16.40;93.70;;;;;;5026808;28;20032;-83
2022/06/07 03:56:39;;;;;;;0.43;0.43;;;16.40;93.70;;;;;;5042789;28;20036;-83
2022/06/07 03:59:05;;;;;;;0.33;0.30;;;16.40;93.40;;;;;;5045315;28;20029;-83
2022/06/07 04:01:31;;;;;;;0.17;0.17;;;16.40;93.50;;;;;;5042251;28;20033;-84
2022/06/07 04:04:05;;;;;;;0.10;0.10;;;16.40;93.50;;;;;;5043226;28;20389;-84
2022/06/07 04:06:34;;;;;;;0.20;0.20;;;16.50;93.40;;;;;;5042000;28;20095;-84
2022/06/07 04:09:00;;;;;;;0.40;0.40;;;16.40;93.20;;;;;;5041341;28;20025;-82
2022/06/07 04:11:27;;;;;;;0.00;0.00;;;16.40;93.20;;;;;;5026455;28;20040;-84
2022/06/07 04:13:55;;;;;;;0.17;0.17;;;16.50;93.20;;;;;;5008100;28;20123;-83
2022/06/07 04:16:24;;;;;;;0.20;0.20;;;16.40;93.20;;;;;;5037953;28;20138;-84
2022/06/07 04:18:50;;;;;;;0.20;0.20;;;16.40;93.50;;;;;;5042996;28;20033;-84
2022/06/07 04:21:16;;;;;;;0.37;0.37;;;16.40;93.60;;;;;;5042746;28;20036;-84
2022/06/07 04:23:43;;;;;;;0.10;0.10;;;16.40;93.40;;;;;;5037688;28;20523;-84
2022/06/07 04:26:10;;;;;;;0.13;0.13;;;16.40;93.30;;;;;;5043154;28;20047;-84
2022/06/07 04:28:35;;;;;;;;;;;16.30;93.50;;;;;;5041773;28;20056;-85
2022/06/07 04:31:01;;;;;;;0.10;0.10;;;16.40;93.50;;;;;;5040414;28;19955;-85
2022/06/07 04:33:27;;;;;;;0.03;0.03;;;16.50;93.30;;;;;;5040850;28;20500;-84
2022/06/07 04:35:53;;;;;;;0.10;0.10;;;16.50;93.10;;;;;;5042349;28;20032;-84
2022/06/07 04:38:19;;;;;;;0.07;0.07;;;16.50;93.00;;;;;;5043952;28;20037;-85
2022/06/07 04:40:44;;;;;;;0.30;0.30;;;16.60;92.90;;;;;;5025038;28;20068;-86
2022/06/07 04:43:11;;;;;;;0.80;0.20;;;16.60;92.80;;;;;;5042305;28;20427;-87
2022/06/07 04:45:39;;;;;;;0.20;0.20;;;16.60;92.70;;;;;;5040488;28;20029;-87
2022/06/07 04:48:06;;;;;;;0.10;0.10;;;16.50;92.60;;;;;;5040821;28;20097;-88
2022/06/07 04:50:33;;;;;;;0.20;0.20;;;16.60;92.50;;;;;;5043105;28;20100;-88
2022/06/07 04:52:58;;;;;;;0.20;0.20;;;16.60;92.50;;;;;;5044528;28;20021;-88
2022/06/07 04:55:24;;;;;;;0.50;0.30;;;16.70;92.40;;;;;;5019771;28;20043;-87
2022/06/07 04:57:50;;;;;;;0.10;0.10;;;16.80;92.20;;;;;;5024253;28;20087;-89
2022/06/07 05:00:18;;;;;;;0.20;0.20;;;16.60;92.30;;;;;;5044567;28;20029;-87
2022/06/07 05:02:45;;;;;;;0.20;0.20;;;16.50;92.60;;;;;;5037496;28;20084;-85
2022/06/07 05:05:13;;;;;;;0.13;0.13;;;16.60;92.70;;;;;;5040251;28;20083;-86
2022/06/07 05:07:39;;;;;;;0.13;0.13;;;16.60;92.40;;;;;;5040292;28;20033;-87
2022/06/07 05:10:10;;;;;;;0.30;0.30;;;16.70;92.10;;;;;;5043062;28;20419;-88
2022/06/07 05:12:37;;;;;;;0.20;0.20;;;16.60;92.10;;;;;;5040436;28;20040;-86
2022/06/07 05:15:05;;;;;;;0.28;0.28;;;16.50;92.40;;;;;;5038636;28;20082;-88
2022/06/07 05:17:31;;;;;;;0.40;0.40;;;16.40;92.70;;;;;;5041329;28;20061;-86
2022/06/07 05:19:57;;;;;;;0.20;0.20;;;16.50;92.40;;;;;;5024210;28;20032;-87
2022/06/07 05:22:24;;;;;;;0.10;0.10;;;16.50;92.00;;;;;;5039450;28;20079;-87
2022/06/07 05:24:51;;;;;;;0.17;0.17;;;16.50;91.70;;;;;;5041695;28;20078;-87
2022/06/07 05:27:20;;;;;;;0.13;0.13;;;16.70;91.70;;;;;;5041811;28;20111;-86
2022/06/07 05:29:50;;;;;;;0.30;0.30;;;16.80;91.30;;;;;;5034971;28;20061;-86
2022/06/07 05:32:16;;;;;;;0.30;0.30;;;16.80;91.40;;;;;;5044070;28;20116;-86
2022/06/07 05:34:43;;;;;;;0.30;0.30;;;16.60;91.30;;;;;;5022298;28;20111;-81
2022/06/07 05:37:14;;;;;;;0.20;0.20;;;16.60;91.40;;;;;;5039804;28;20033;-87
2022/06/07 05:39:40;;;;;;;0.35;0.30;;;16.50;91.70;;;;;;5042079;28;20054;-85
2022/06/07 05:42:07;;;;;;;0.20;0.13;;;16.70;91.50;;;;;;5040833;28;20500;-84
2022/06/07 05:44:34;;;;;;;0.30;0.30;;;16.90;90.90;;;;;;5041542;28;20025;-88
2022/06/07 05:47:00;;;;;;;0.20;0.20;;;17.00;91.00;;;;;;5041072;28;20116;-85
2022/06/07 05:49:26;;;;;;;0.10;0.10;;;17.70;90.00;;;;;;5021749;28;20092;-88
2022/06/07 05:51:52;;;;;;;0.10;0.10;;;18.00;88.90;;;;;;5043072;28;20186;-89
2022/06/07 05:54:18;;;;;;;1.70;0.33;;;18.90;86.10;;;;;;5040120;28;20021;-89
2022/06/07 05:56:44;;;;;;;0.63;0.63;;;18.80;84.80;;;;;;5045676;28;20515;-89
2022/06/07 05:59:10;;;;;;;0.10;0.10;;;18.20;86.60;;;;;;5042509;28;20037;-90
2022/06/07 06:01:36;;;;;;;0.00;0.00;;;18.00;87.60;;;;;;5040041;28;20052;-89
2022/06/07 06:04:03;;;;;;;0.50;0.47;;;17.90;88.20;;;;;;5042525;28;20033;-89
2022/06/07 06:06:30;;;;;;;0.20;0.20;;;17.90;87.80;;;;;;5020358;28;20817;-84
2022/06/07 06:11:40;;;;;;;0.15;0.15;;;17.90;88.10;;;;;;5027119;28;20024;-86
2022/06/07 06:14:06;;;;;;;0.37;0.30;;;17.70;89.00;;;;;;5032454;28;20561;-88
2022/06/07 06:16:32;;;;;;;0.00;0.00;;;17.60;89.00;;;;;;5032851;28;20076;-87
2022/06/07 06:18:59;;;;;;;10.23;0.57;;;17.60;88.60;;;;;;5028248;28;20033;-87
2022/06/07 06:21:32;;;;;;;0.10;0.10;;;17.60;88.20;;;;;;5028852;28;20037;-87
2022/06/07 06:23:59;;;;;;;0.32;0.32;;;18.10;86.90;;;;;;5013744;28;20491;-88
2022/06/07 06:26:26;;;;;;;0.20;0.20;;;18.90;84.10;;;;;;5030783;28;20033;-87
2022/06/07 06:28:52;;;;;;;0.17;0.17;;;19.20;82.50;;;;;;5037245;28;20033;-86
2022/06/07 06:31:19;;;;;;;0.88;0.50;;;19.00;83.60;;;;;;5034574;28;20040;-89
2022/06/07 06:33:50;;;;;;;0.08;0.08;;;19.10;83.20;;;;;;5034011;28;20831;-88
2022/06/07 06:36:19;;;;;;;0.30;0.20;;;19.60;80.60;;;;;;5013425;28;20109;-88
2022/06/07 06:38:45;;;;;;;0.20;0.20;;;21.90;76.60;;;;;;5025559;28;20480;-88
2022/06/07 06:41:32;;;;;;;0.22;0.10;;;21.20;75.70;;;;;;5032709;28;20051;-87
2022/06/07 06:44:03;;;;;;;0.28;0.10;;;22.10;74.20;;;;;;5037505;28;20048;-89
2022/06/07 06:46:31;;;;;;;0.20;0.13;;;24.30;67.40;;;;;;5035617;28;20044;-87
2022/06/07 06:48:58;;;;;;;0.55;0.50;;;22.10;71.70;;;;;;5037496;28;20063;-88
2022/06/07 06:51:26;;;;;;;1.35;0.65;;;20.80;73.90;;;;;;5031989;28;20029;-86
2022/06/07 06:53:52;;;;;;;5.93;1.10;;;20.50;76.70;;;;;;5021085;28;20029;-86
2022/06/07 06:56:22;;;;;;;0.13;0.13;;;20.00;76.70;;;;;;5035316;28;20392;-85
2022/06/07 06:58:50;;;;;;;0.00;0.00;;;21.80;71.60;;;;;;5024990;28;20037;-85
2022/06/07 07:01:19;;;;;;;0.32;0.32;;;22.50;69.80;;;;;;5024483;28;20037;-86
2022/06/07 07:03:45;;;;;;;0.13;0.13;;;22.60;67.60;;;;;;5044982;28;20082;-86
2022/06/07 07:06:13;;;;;;;0.10;0.10;;;25.70;62.60;;;;;;5045449;28;20473;-86
2022/06/07 07:08:40;;;;;;;0.10;0.10;;;24.90;60.30;;;;;;5033923;28;20953;-85
2022/06/07 07:11:17;;;;;;;0.10;0.10;;;24.00;63.30;;;;;;5047038;28;20116;-86
2022/06/07 07:13:44;;;;;;;0.08;0.08;;;27.40;59.30;;;;;;5045027;28;20033;-86
2022/06/07 07:16:13;;;;;;;0.10;0.10;;;28.20;54.00;;;;;;5043856;28;20025;-87
2022/06/07 07:18:39;;;;;;;0.15;0.15;;;24.40;60.10;;;;;;5043535;28;20029;-85
2022/06/07 07:21:11;;;;;;;0.00;0.00;;;22.90;66.00;;;;;;5043000;28;20042;-86
2022/06/07 07:23:38;;;;;;;0.52;0.45;;;22.50;64.60;;;;;;5044326;28;20386;-86
2022/06/07 07:26:13;;;;;;;0.68;0.68;;;23.40;62.30;;;;;;5045865;28;20086;-86
2022/06/07 07:28:40;;;;;;;2.33;0.40;;;25.20;57.30;;;;;;5044325;28;20052;-86
2022/06/07 07:31:12;;;;;;;0.00;0.00;;;26.10;53.70;;;;;;5045563;28;20063;-86
2022/06/07 07:33:39;;;;;;;0.43;0.43;;;24.80;59.40;;;;;;5043117;28;20025;-86
2022/06/07 07:36:05;;;;;;;0.65;0.40;;;25.10;57.10;;;;;;5042713;28;20496;-85
2022/06/07 07:38:32;;;;;;;0.00;0.00;;;22.70;62.10;;;;;;5045098;28;20040;-86
2022/06/07 07:40:58;;;;;;;0.10;0.03;;;27.10;55.90;;;;;;5044620;28;20033;-86
2022/06/07 07:43:24;;;;;;;0.50;0.50;;;24.90;56.20;;;;;;5042649;28;20036;-86
2022/06/07 07:45:55;;;;;;;2.55;0.85;;;28.20;50.10;;;;;;5042862;28;20040;-84
2022/06/07 07:48:23;;;;;;;0.15;0.15;;;28.80;51.90;;;;;;5042336;28;20045;-84
2022/06/07 07:50:49;;;;;;;0.50;0.30;;;28.40;53.20;;;;;;5042458;28;20123;-85
2022/06/07 07:53:17;;;;;;;0.30;0.30;;;27.00;51.70;;;;;;5044531;28;20032;-84
2022/06/07 07:55:45;;;;;;;0.00;0.00;;;30.90;46.30;;;;;;5036516;28;20045;-84
2022/06/07 07:58:11;;;;;;;0.05;0.05;;;29.30;50.00;;;;;;5028985;28;20086;-84
2022/06/07 08:00:41;;;;;;;0.43;0.40;;;27.20;51.10;;;;;;5027383;28;20033;-84
2022/06/07 08:03:07;;;;;;;0.57;0.10;;;27.10;52.70;;;;;;5010733;28;20095;-84
2022/06/07 08:05:33;;;;;;;;;;;25.90;53.30;;;;;;5021467;28;20041;-83
2022/06/07 08:07:58;;;;;;;0.00;0.00;;;26.10;52.90;;;;;;5044121;28;19924;-84
2022/06/07 08:10:25;;;;;;;0.00;0.00;;;26.00;53.60;;;;;;5042236;28;20025;-84
2022/06/07 08:12:50;;;;;;;0.00;0.00;;;25.40;54.30;;;;;;5042563;28;20040;-84
2022/06/07 08:15:20;;;;;;;0.00;0.00;;;24.70;55.40;;;;;;5040610;28;20029;-83
2022/06/07 08:17:46;;;;;;;0.25;0.25;;;24.70;55.70;;;;;;5042097;28;20077;-84
2022/06/07 08:20:12;;;;;;;1.92;1.05;;;27.20;54.40;;;;;;5041392;28;20513;-84
2022/06/07 08:22:39;;;;;;;0.38;0.38;;;31.80;46.80;;;;;;5041906;28;20052;-84
2022/06/07 08:25:06;;;;;;;0.25;0.25;;;31.50;41.90;;;;;;5036217;28;20036;-84
2022/06/07 08:27:31;;;;;;;0.10;0.10;;;29.80;47.50;;;;;;5037162;28;20540;-84
2022/06/07 08:29:57;;;;;;;;;;;32.90;45.70;;;;;;5026933;28;20039;-84
2022/06/07 08:32:22;;;;;;;;;;;27.30;49.40;;;;;;5044716;28;19909;-84
2022/06/07 08:37:37;;;;;;;0.03;0.03;;;29.40;49.80;;;;;;5041009;28;20828;-84
2022/06/07 08:40:36;;;;;;;1.27;0.43;;;27.90;47.40;;;;;;5041644;28;20028;-83
2022/06/07 08:43:11;;;;;;;0.00;0.00;;;24.50;53.20;;;;;;5019957;28;20107;-83
2022/06/07 08:45:40;;;;;;;0.00;0.00;;;23.50;57.90;;;;;;5040424;28;20024;-87
2022/06/07 08:48:13;;;;;;;0.00;0.00;;;22.40;59.60;;;;;;5031742;28;20167;-86
2022/06/07 08:50:44;;;;;;;0.30;0.30;;;26.30;57.30;;;;;;5042053;28;20061;-86
2022/06/07 08:53:22;;;;;;;2.38;0.22;;;31.60;46.20;;;;;;5045060;28;20037;-86
2022/06/07 08:55:54;;;;;;;0.22;0.22;;;32.10;46.20;;;;;;5043872;28;20025;-86
2022/06/07 08:58:25;;;;;;;0.10;0.10;;;34.80;41.10;;;;;;5041218;28;20488;-86
2022/06/07 09:00:59;;;;;;;0.90;0.68;;;31.30;41.30;;;;;;5041890;28;20369;-86
2022/06/07 09:03:50;;;;;;;0.10;0.10;;;27.00;47.90;;;;;;5031889;28;20032;-86
2022/06/07 09:06:23;;;;;;;0.98;0.55;;;25.30;53.20;;;;;;5037504;28;20408;-86
2022/06/07 09:08:59;;;;;;;5.28;0.20;;;25.00;53.40;;;;;;5037184;28;20392;-85
2022/06/07 09:14:32;;;;;;;0.10;0.10;;;25.60;53.40;;;;;;5041788;28;20048;-85
2022/06/07 09:17:00;;;;;;;0.05;0.05;;;25.70;51.80;;;;;;5043583;28;20114;-86
2022/06/07 09:19:28;;;;;;;1.75;0.63;;;28.70;50.40;;;;;;5042844;28;20025;-85
2022/06/07 09:21:58;;;;;;;0.30;0.25;;;30.70;46.50;;;;;;5040201;28;20071;-86
2022/06/07 09:25:23;;;;;;;0.10;0.10;;;27.80;47.90;;;;;;5041267;28;20036;-86
2022/06/07 09:27:49;;;;;;;0.08;0.05;;;27.70;49.50;;;;;;5000792;28;20045;-86
2022/06/07 09:30:29;;;;;;;0.20;0.20;;;28.20;49.70;;;;;;4985228;28;20048;-86
2022/06/07 09:32:55;;;;;;;0.00;0.00;;;31.80;46.50;;;;;;4999530;28;20579;-86
2022/06/07 09:35:36;;;;;;;0.00;0.00;;;30.80;42.50;;;;;;5002144;28;20049;-86
2022/06/07 09:38:12;;;;;;;0.00;0.00;;;27.80;46.90;;;;;;5001485;28;20042;-86
2022/06/07 09:40:55;;;;;;;0.00;0.00;;;32.60;43.40;;;;;;5000793;28;20030;-86
2022/06/07 09:43:40;;;;;;;0.13;0.13;;;33.80;42.20;;;;;;4999792;28;20494;-86
2022/06/07 09:46:07;;;;;;;;;;;32.80;41.70;;;;;;4999348;28;20042;-84
2022/06/07 09:48:42;;;;;;;0.10;0.10;;;28.50;44.00;;;;;;4998214;28;19922;-83
2022/06/07 09:51:15;;;;;;;0.20;0.20;;;26.50;48.70;;;;;;4998928;28;20050;-84
2022/06/07 09:53:44;;;;;;;0.00;0.00;;;25.40;51.30;;;;;;4997754;28;20030;-84
2022/06/07 09:56:31;;;;;;;0.00;0.00;;;25.10;52.40;;;;;;5000372;28;20057;-83
2022/06/07 09:59:34;;;;;;;11.23;0.65;;;28.30;51.50;;;;;;5020345;28;20048;-84
2022/06/07 10:02:10;;;;;;;0.00;0.00;;;33.60;43.60;;;;;;5027530;28;20048;-83
2022/06/07 10:05:06;;;;;;;0.00;0.00;;;33.20;40.10;;;;;;5018568;28;20029;-83
2022/06/07 10:07:44;;;;;;;0.00;0.00;;;34.40;39.60;;;;;;4959051;28;20100;-83
2022/06/07 10:10:17;;;;;;;0.30;0.30;;;33.50;41.30;;;;;;4960384;28;20707;-84
2022/06/07 10:13:40;;;;;;;0.10;0.10;;;33.80;40.10;;;;;;4960590;28;20430;-84
2022/06/07 10:17:01;;;;;;;0.00;0.00;;;29.40;40.80;;;;;;4884391;29;20190;-83
2022/06/07 10:19:38;;;;;;;0.60;0.20;;;32.50;43.30;;;;;;4755569;30;20051;-83
2022/06/07 10:22:07;;;;;;;0.20;0.20;;;34.90;37.00;;;;;;4755719;30;20063;-83
2022/06/07 10:25:09;;;;;;;2.83;0.68;;;35.20;38.00;;;;;;4755493;30;20043;-83
2022/06/07 10:27:51;;;;;;;0.57;0.20;;;34.10;38.60;;;;;;4747804;30;20063;-83
2022/06/07 10:30:38;;;;;;;0.10;0.00;;;35.20;36.30;;;;;;4754572;30;20511;-83
2022/06/07 10:33:26;;;;;;;16.63;1.40;;;34.90;38.00;;;;;;4756812;30;20074;-84
2022/06/07 10:36:12;;;;;;;0.22;0.22;;;32.10;41.90;;;;;;4755713;30;20039;-84
2022/06/07 10:38:53;;;;;;;0.20;0.20;;;33.20;40.60;;;;;;4757333;30;20626;-83
2022/06/07 10:41:41;;;;;;;0.00;0.00;;;32.20;40.40;;;;;;4756025;30;20047;-83
2022/06/07 10:44:21;;;;;;;0.00;0.00;;;28.40;43.30;;;;;;4778382;29;20057;-84
2022/06/07 10:46:48;;;;;;;0.00;0.00;;;27.10;45.70;;;;;;4821163;29;20037;-84
2022/06/07 10:49:51;;;;;;;0.08;0.08;;;27.20;44.30;;;;;;4829693;29;20054;-84
2022/06/07 10:52:25;;;;;;;0.00;0.00;;;26.50;46.10;;;;;;4893177;28;20060;-83
2022/06/07 10:55:08;;;;;;;2.08;0.55;;;26.60;48.30;;;;;;4937604;28;21013;-83
2022/06/07 10:57:37;;;;;;;0.80;0.40;;;27.00;48.40;;;;;;5022604;28;20065;-83
2022/06/07 11:00:24;;;;;;;1.13;0.63;;;27.50;47.80;;;;;;5007948;28;20852;-83
2022/06/07 11:03:05;;;;;;;0.00;0.00;;;27.70;46.40;;;;;;5035918;28;20537;-83
2022/06/07 11:11:33;;;;;;;1.02;0.45;;;26.10;48.30;;;;;;5031228;28;20428;-83
2022/06/07 11:14:18;;;;;;;0.00;0.00;;;25.90;49.80;;;;;;5027763;28;20041;-84
2022/06/07 11:17:12;;;;;;;0.00;0.00;;;26.10;48.50;;;;;;5028727;28;20029;-83
2022/06/07 11:19:38;;;;;;;0.10;0.05;;;25.50;48.60;;;;;;5029240;28;20029;-84
2022/06/07 11:22:05;;;;;;;0.10;0.10;;;25.60;51.20;;;;;;5027024;28;20123;-84
2022/06/07 11:24:35;;;;;;;0.70;0.70;;;25.20;53.30;;;;;;5038372;28;20025;-85
2022/06/07 11:27:16;;;;;;;0.22;0.22;;;24.90;52.00;;;;;;5017443;28;20053;-85
2022/06/07 11:29:43;;;;;;;0.22;0.22;;;25.70;50.70;;;;;;5025595;28;20068;-84
2022/06/07 11:32:48;;;;;;;0.05;0.05;;;25.90;48.70;;;;;;5031974;28;20051;-82
2022/06/07 11:35:47;;;;;;;0.43;0.20;;;25.90;47.30;;;;;;5042326;28;20055;-84
2022/06/07 11:38:26;;;;;;;0.00;0.00;;;25.70;48.90;;;;;;5000380;28;20206;-82
2022/06/07 11:41:36;;;;;;;0.00;0.00;;;25.20;48.70;;;;;;4999386;28;20165;-81
2022/06/07 11:43:58;;;;;;;0.05;0.05;;;24.90;49.40;;;;;;4996569;28;20107;-81
2022/06/07 11:46:46;;;;;;;0.00;0.00;;;25.20;51.40;;;;;;5003266;28;20076;-89
2022/06/07 11:49:18;;;;;;;0.17;0.17;;;25.40;50.30;;;;;;4925472;29;20078;-90
2022/06/07 11:52:11;;;;;;;0.15;0.08;;;24.60;51.10;;;;;;4918360;29;20046;-90
2022/06/07 11:54:45;;;;;;;0.10;0.10;;;24.70;53.00;;;;;;4921521;29;20161;-88
2022/06/07 11:57:35;;;;;;;0.10;0.00;;;24.70;53.40;;;;;;4925728;29;20044;-88
2022/06/07 12:00:20;;;;;;;1.48;0.75;;;24.30;50.20;;;;;;4926135;29;20114;-87
2022/06/07 12:02:58;;;;;;;0.00;0.00;;;24.40;51.20;;;;;;4922463;29;20107;-87
2022/06/07 12:05:40;;;;;;;0.75;0.75;;;24.90;54.60;;;;;;4922525;29;20032;-85
2022/06/07 12:08:29;;;;;;;0.00;0.00;;;25.00;53.70;;;;;;4911294;29;20208;-87
2022/06/07 12:11:22;;;;;;;0.00;0.00;;;24.60;49.10;;;;;;4916497;29;20040;-86
2022/06/07 12:13:57;;;;;;;0.00;0.00;;;24.30;52.00;;;;;;4912784;29;20043;-87
2022/06/07 12:16:38;;;;;;;0.00;0.00;;;25.20;51.30;;;;;;4950038;28;21107;-87
2022/06/07 12:19:29;;;;;;;5.47;0.60;;;24.50;50.30;;;;;;4958455;28;20054;-87
2022/06/07 12:22:03;;;;;;;0.00;0.00;;;24.60;52.60;;;;;;4956890;28;20050;-87
2022/06/07 12:24:38;;;;;;;0.10;0.10;;;24.80;53.90;;;;;;4953228;28;20031;-87
2022/06/07 12:27:24;;;;;;;0.65;0.45;;;25.20;51.30;;;;;;5020392;28;20045;-87
2022/06/07 12:29:53;;;;;;;0.00;0.00;;;25.20;50.80;;;;;;5027707;28;20096;-87
2022/06/07 12:32:30;;;;;;;0.00;0.00;;;25.40;54.50;;;;;;5033185;28;20262;-88
2022/06/07 12:35:16;;;;;;;0.00;0.00;;;25.50;48.20;;;;;;5043823;28;20060;-88
2022/06/07 12:37:47;;;;;;;0.00;0.00;;;24.90;53.40;;;;;;5042126;28;20032;-88
2022/06/07 12:40:30;;;;;;;1.45;0.20;;;24.90;52.20;;;;;;5042455;28;20510;-87
2022/06/07 12:42:56;;;;;;;0.00;0.00;;;24.40;50.70;;;;;;5042430;28;20041;-89
2022/06/07 12:45:24;;;;;;;0.00;0.00;;;25.00;53.20;;;;;;5042708;28;20082;-89
2022/06/07 12:48:20;;;;;;;0.22;0.20;;;24.60;49.90;;;;;;5042679;28;20068;-88
2022/06/07 12:50:47;;;;;;;0.50;0.15;;;23.80;52.60;;;;;;5039187;28;20041;-89
2022/06/07 12:53:26;;;;;;;0.20;0.00;;;24.20;53.50;;;;;;5041993;28;20851;-88
2022/06/07 12:56:10;;;;;;;0.00;0.00;;;24.20;50.80;;;;;;5044915;28;20033;-88
2022/06/07 12:58:52;;;;;;;0.00;0.00;;;24.10;54.10;;;;;;5042388;28;20029;-90
2022/06/07 13:01:41;;;;;;;0.00;0.00;;;24.10;54.40;;;;;;5036628;28;20424;-88
2022/06/07 13:04:21;;;;;;;0.00;0.00;;;23.90;53.90;;;;;;5021797;28;20025;-87
2022/06/07 13:07:01;;;;;;;0.00;0.00;;;24.10;52.70;;;;;;5030440;28;20082;-87
2022/06/07 13:09:28;;;;;;;0.00;0.00;;;24.20;54.40;;;;;;5033607;28;20056;-87
2022/06/07 13:11:56;;;;;;;0.00;0.00;;;24.30;52.50;;;;;;5032155;28;20033;-86
2022/06/07 13:14:23;;;;;;;0.00;0.00;;;24.30;53.00;;;;;;5029351;28;20075;-86
2022/06/07 13:16:49;;;;;;;0.00;0.00;;;24.40;52.30;;;;;;5036831;28;20116;-87
2022/06/07 13:19:14;;;;;;;0.10;0.10;;;24.00;52.00;;;;;;5032282;28;20572;-87
2022/06/07 13:21:48;;;;;;;0.00;0.00;;;24.60;54.00;;;;;;5035939;28;20040;-86
2022/06/07 13:24:28;;;;;;;1.15;0.57;;;24.90;53.20;;;;;;5039555;28;20029;-87
2022/06/07 13:27:02;;;;;;;1.05;0.22;;;24.30;52.00;;;;;;5012836;28;20043;-87
2022/06/07 13:29:36;;;;;;;0.00;0.00;;;24.60;49.80;;;;;;5041786;28;20028;-87
2022/06/07 13:32:22;;;;;;;0.10;0.10;;;24.60;50.60;;;;;;5038861;28;20072;-84